Main page
METAR-TAF:

METAR-TAF

Airports :

Bristol Airport

Bristol, England

latitude: 51-23N, longitude: 002-43W, elevation: 189 m

Current weather observation

The report was made 30 minutes ago, at 15:50 UTC
Wind 10 kt from the East
Temperature 23°C
Humidity 36%
Pressure 1030 hPa
Visibility 10 km or more

METAR: EGGD 281550Z AUTO 08010KT 9999 NCD 23/07 Q1030

Time: 17:20 (16:20 UTC)

Forecast

The report was made 5 hours and 21 minutes ago, at 10:59 UTC
Forecast valid from 28 at 12 UTC to 29 at 12 UTC
Wind 8 kt from the East/Southeast
Visibility 10 km or more
no clouds below 1500 m and no cumulonimbus

TAF: EGGD 281059Z 2812/2912 11008KT CAVOK

Weather observations and forecasts of more than 4000 airports (METAR and TAF reports).

The available stations are represented by yellow and red dots on the map.

Hover mouse over dot to see the name of the station.

Then click to see weather observations and forecasts.

To change the map : click on the green buttons with a black cross to zoom in, on the green button with a dash to zoom out, or on the green arrows for adjacent maps.


METAR-TAF: